sensor_id;sensor_type;location;lat;lon;timestamp;pressure;altitude;pressure_sealevel;temperature;humidity
2178;BME280;1095;50.992;6.798;2022-10-31T00:00:42;101368.22;;;13.03;100.00
2178;BME280;1095;50.992;6.798;2022-10-31T00:03:10;101371.16;;;13.00;100.00
2178;BME280;1095;50.992;6.798;2022-10-31T00:05:40;101374.09;;;12.96;100.00
2178;BME280;1095;50.992;6.798;2022-10-31T00:08:07;101374.41;;;12.93;100.00
2178;BME280;1095;50.992;6.798;2022-10-31T00:10:37;101376.88;;;12.95;100.00
2178;BME280;1095;50.992;6.798;2022-10-31T00:13:04;101370.41;;;12.89;100.00
2178;BME280;1095;50.992;6.798;2022-10-31T00:15:32;101365.09;;;12.81;100.00
2178;BME280;1095;50.992;6.798;2022-10-31T00:17:58;101370.66;;;12.78;100.00
2178;BME280;1095;50.992;6.798;2022-10-31T00:20:26;101369.34;;;12.74;100.00
2178;BME280;1095;50.992;6.798;2022-10-31T00:22:53;101364.72;;;12.76;100.00
2178;BME280;1095;50.992;6.798;2022-10-31T00:25:20;101350.97;;;12.74;100.00
2178;BME280;1095;50.992;6.798;2022-10-31T00:27:46;101365.75;;;12.75;100.00
2178;BME280;1095;50.992;6.798;2022-10-31T00:30:13;101353.59;;;12.74;100.00
2178;BME280;1095;50.992;6.798;2022-10-31T00:32:40;101364.41;;;12.71;100.00
2178;BME280;1095;50.992;6.798;2022-10-31T00:35:06;101369.94;;;12.68;100.00
2178;BME280;1095;50.992;6.798;2022-10-31T00:37:34;101371.91;;;12.66;100.00
2178;BME280;1095;50.992;6.798;2022-10-31T00:40:01;101375.88;;;12.70;100.00
2178;BME280;1095;50.992;6.798;2022-10-31T00:42:28;101381.78;;;12.72;100.00
2178;BME280;1095;50.992;6.798;2022-10-31T00:44:54;101392.97;;;12.74;100.00
2178;BME280;1095;50.992;6.798;2022-10-31T00:47:21;101399.69;;;12.77;100.00
2178;BME280;1095;50.992;6.798;2022-10-31T00:49:47;101393.81;;;12.75;100.00
2178;BME280;1095;50.992;6.798;2022-10-31T00:52:14;101386.91;;;12.74;100.00
2178;BME280;1095;50.992;6.798;2022-10-31T00:54:42;101382.94;;;12.70;100.00
2178;BME280;1095;50.992;6.798;2022-10-31T00:57:08;101389.69;;;12.72;100.00
2178;BME280;1095;50.992;6.798;2022-10-31T00:59:35;101380.19;;;12.79;100.00
2178;BME280;1095;50.992;6.798;2022-10-31T01:02:02;101384.84;;;12.85;100.00
2178;BME280;1095;50.992;6.798;2022-10-31T01:04:28;101391.06;;;12.84;100.00
2178;BME280;1095;50.992;6.798;2022-10-31T01:06:55;101400.28;;;12.88;100.00
2178;BME280;1095;50.992;6.798;2022-10-31T01:09:22;101383.84;;;12.86;100.00
2178;BME280;1095;50.992;6.798;2022-10-31T01:11:50;101377.56;;;12.79;100.00
2178;BME280;1095;50.992;6.798;2022-10-31T01:14:17;101371.56;;;12.87;100.00
2178;BME280;1095;50.992;6.798;2022-10-31T01:16:44;101362.78;;;12.78;100.00
2178;BME280;1095;50.992;6.798;2022-10-31T01:19:10;101371.00;;;12.75;100.00
2178;BME280;1095;50.992;6.798;2022-10-31T01:21:37;101372.41;;;12.70;100.00
2178;BME280;1095;50.992;6.798;2022-10-31T01:24:04;101361.69;;;12.63;100.00
2178;BME280;1095;50.992;6.798;2022-10-31T01:26:32;101364.78;;;12.58;100.00
2178;BME280;1095;50.992;6.798;2022-10-31T01:29:03;101369.13;;;12.50;100.00
2178;BME280;1095;50.992;6.798;2022-10-31T01:31:32;101363.72;;;12.51;100.00
2178;BME280;1095;50.992;6.798;2022-10-31T01:33:59;101358.63;;;12.50;100.00
2178;BME280;1095;50.992;6.798;2022-10-31T01:36:27;101354.34;;;12.49;100.00
2178;BME280;1095;50.992;6.798;2022-10-31T01:38:57;101349.09;;;12.49;100.00
2178;BME280;1095;50.992;6.798;2022-10-31T01:41:29;101351.56;;;12.50;100.00
2178;BME280;1095;50.992;6.798;2022-10-31T01:43:58;101329.81;;;12.58;100.00
2178;BME280;1095;50.992;6.798;2022-10-31T01:46:29;101341.16;;;12.58;100.00
2178;BME280;1095;50.992;6.798;2022-10-31T01:48:59;101342.88;;;12.50;100.00
2178;BME280;1095;50.992;6.798;2022-10-31T01:51:30;101337.69;;;12.40;100.00
2178;BME280;1095;50.992;6.798;2022-10-31T01:54:06;101345.88;;;12.37;100.00
2178;BME280;1095;50.992;6.798;2022-10-31T01:56:36;101350.44;;;12.35;100.00
2178;BME280;1095;50.992;6.798;2022-10-31T01:59:09;101333.19;;;12.33;100.00
2178;BME280;1095;50.992;6.798;2022-10-31T02:01:38;101335.47;;;12.27;100.00
2178;BME280;1095;50.992;6.798;2022-10-31T02:04:06;101341.00;;;12.24;100.00
2178;BME280;1095;50.992;6.798;2022-10-31T02:06:38;101342.44;;;12.19;100.00
2178;BME280;1095;50.992;6.798;2022-10-31T02:09:07;101350.44;;;12.17;100.00
2178;BME280;1095;50.992;6.798;2022-10-31T02:11:35;101347.75;;;12.09;100.00
2178;BME280;1095;50.992;6.798;2022-10-31T02:14:02;101353.00;;;12.09;100.00
2178;BME280;1095;50.992;6.798;2022-10-31T02:16:29;101353.28;;;12.06;100.00
2178;BME280;1095;50.992;6.798;2022-10-31T02:18:57;101352.91;;;12.01;100.00
2178;BME280;1095;50.992;6.798;2022-10-31T02:21:30;101358.06;;;11.93;100.00
2178;BME280;1095;50.992;6.798;2022-10-31T02:27:17;101365.00;;;11.84;100.00
2178;BME280;1095;50.992;6.798;2022-10-31T02:30:01;101366.28;;;11.80;100.00
2178;BME280;1095;50.992;6.798;2022-10-31T02:32:41;101366.13;;;11.82;100.00
2178;BME280;1095;50.992;6.798;2022-10-31T02:35:12;101365.59;;;11.78;100.00
2178;BME280;1095;50.992;6.798;2022-10-31T02:37:46;101360.91;;;11.72;100.00
2178;BME280;1095;50.992;6.798;2022-10-31T02:40:19;101353.19;;;11.71;100.00
2178;BME280;1095;50.992;6.798;2022-10-31T02:42:52;101364.78;;;11.68;100.00
2178;BME280;1095;50.992;6.798;2022-10-31T02:45:22;101364.25;;;11.64;100.00
2178;BME280;1095;50.992;6.798;2022-10-31T02:47:53;101367.03;;;11.63;100.00
2178;BME280;1095;50.992;6.798;2022-10-31T02:50:26;101368.81;;;11.62;100.00
2178;BME280;1095;50.992;6.798;2022-10-31T02:52:55;101369.75;;;11.71;100.00
2178;BME280;1095;50.992;6.798;2022-10-31T02:55:54;101366.16;;;11.72;100.00
2178;BME280;1095;50.992;6.798;2022-10-31T02:58:22;101368.66;;;11.64;100.00
2178;BME280;1095;50.992;6.798;2022-10-31T03:01:05;101369.25;;;11.58;100.00
2178;BME280;1095;50.992;6.798;2022-10-31T03:03:46;101363.47;;;11.54;100.00
2178;BME280;1095;50.992;6.798;2022-10-31T03:06:23;101351.63;;;11.50;100.00
2178;BME280;1095;50.992;6.798;2022-10-31T03:09:00;101358.13;;;11.46;100.00
2178;BME280;1095;50.992;6.798;2022-10-31T03:11:37;101363.22;;;11.48;100.00
2178;BME280;1095;50.992;6.798;2022-10-31T03:14:10;101372.59;;;11.50;100.00
2178;BME280;1095;50.992;6.798;2022-10-31T03:16:45;101362.38;;;11.47;100.00
2178;BME280;1095;50.992;6.798;2022-10-31T03:19:17;101371.22;;;11.46;100.00
2178;BME280;1095;50.992;6.798;2022-10-31T03:21:47;101373.97;;;11.45;100.00
2178;BME280;1095;50.992;6.798;2022-10-31T03:24:19;101365.97;;;11.46;100.00
2178;BME280;1095;50.992;6.798;2022-10-31T03:26:49;101373.94;;;11.54;100.00
2178;BME280;1095;50.992;6.798;2022-10-31T03:29:20;101368.75;;;11.45;100.00
2178;BME280;1095;50.992;6.798;2022-10-31T03:31:51;101384.22;;;11.38;100.00
2178;BME280;1095;50.992;6.798;2022-10-31T03:34:20;101381.88;;;11.35;100.00
2178;BME280;1095;50.992;6.798;2022-10-31T03:36:50;101366.06;;;11.27;100.00
2178;BME280;1095;50.992;6.798;2022-10-31T03:39:20;101377.91;;;11.31;100.00
2178;BME280;1095;50.992;6.798;2022-10-31T03:41:54;101374.59;;;11.29;100.00
2178;BME280;1095;50.992;6.798;2022-10-31T03:44:22;101374.75;;;11.27;100.00
2178;BME280;1095;50.992;6.798;2022-10-31T03:46:50;101366.75;;;11.29;100.00
2178;BME280;1095;50.992;6.798;2022-10-31T03:49:17;101359.16;;;11.26;100.00
2178;BME280;1095;50.992;6.798;2022-10-31T03:51:49;101360.69;;;11.28;100.00
2178;BME280;1095;50.992;6.798;2022-10-31T03:54:20;101342.38;;;11.19;100.00
2178;BME280;1095;50.992;6.798;2022-10-31T03:56:51;101361.38;;;11.21;100.00
2178;BME280;1095;50.992;6.798;2022-10-31T03:59:24;101371.47;;;11.16;100.00
2178;BME280;1095;50.992;6.798;2022-10-31T04:01:57;101359.63;;;11.12;100.00
2178;BME280;1095;50.992;6.798;2022-10-31T04:04:27;101373.00;;;11.09;100.00
2178;BME280;1095;50.992;6.798;2022-10-31T04:06:57;101371.63;;;11.05;100.00
2178;BME280;1095;50.992;6.798;2022-10-31T04:09:27;101369.69;;;10.97;100.00
2178;BME280;1095;50.992;6.798;2022-10-31T04:11:56;101369.28;;;11.02;100.00
2178;BME280;1095;50.992;6.798;2022-10-31T04:14:26;101367.47;;;11.02;100.00
2178;BME280;1095;50.992;6.798;2022-10-31T04:16:55;101378.25;;;10.99;100.00
2178;BME280;1095;50.992;6.798;2022-10-31T04:19:21;101384.59;;;10.96;100.00
2178;BME280;1095;50.992;6.798;2022-10-31T04:21:48;101367.22;;;10.95;100.00
2178;BME280;1095;50.992;6.798;2022-10-31T04:24:16;101361.00;;;10.96;100.00
2178;BME280;1095;50.992;6.798;2022-10-31T04:26:43;101362.66;;;10.97;100.00
2178;BME280;1095;50.992;6.798;2022-10-31T04:29:10;101365.28;;;10.97;100.00
2178;BME280;1095;50.992;6.798;2022-10-31T04:31:36;101371.63;;;10.95;100.00
2178;BME280;1095;50.992;6.798;2022-10-31T04:34:03;101363.63;;;10.96;100.00
2178;BME280;1095;50.992;6.798;2022-10-31T04:36:29;101349.72;;;10.96;100.00
2178;BME280;1095;50.992;6.798;2022-10-31T04:38:56;101363.06;;;11.03;100.00
2178;BME280;1095;50.992;6.798;2022-10-31T04:41:24;101356.72;;;11.05;100.00
2178;BME280;1095;50.992;6.798;2022-10-31T04:43:51;101355.63;;;11.08;100.00
2178;BME280;1095;50.992;6.798;2022-10-31T04:46:17;101353.69;;;11.10;100.00
2178;BME280;1095;50.992;6.798;2022-10-31T04:48:44;101364.16;;;11.19;100.00
2178;BME280;1095;50.992;6.798;2022-10-31T04:51:11;101349.81;;;11.14;100.00
2178;BME280;1095;50.992;6.798;2022-10-31T04:53:37;101352.88;;;11.09;100.00
2178;BME280;1095;50.992;6.798;2022-10-31T04:56:05;101353.00;;;11.08;100.00
2178;BME280;1095;50.992;6.798;2022-10-31T04:58:43;101346.53;;;11.02;100.00
2178;BME280;1095;50.992;6.798;2022-10-31T05:01:09;101340.47;;;11.02;100.00
2178;BME280;1095;50.992;6.798;2022-10-31T05:03:36;101341.28;;;11.02;100.00
2178;BME280;1095;50.992;6.798;2022-10-31T05:06:04;101340.75;;;10.98;100.00
2178;BME280;1095;50.992;6.798;2022-10-31T05:08:31;101335.50;;;10.98;100.00
2178;BME280;1095;50.992;6.798;2022-10-31T05:10:59;101336.34;;;10.99;100.00
2178;BME280;1095;50.992;6.798;2022-10-31T05:13:27;101342.81;;;11.05;100.00
2178;BME280;1095;50.992;6.798;2022-10-31T05:15:55;101332.63;;;11.02;100.00
2178;BME280;1095;50.992;6.798;2022-10-31T05:18:22;101343.34;;;11.08;100.00
2178;BME280;1095;50.992;6.798;2022-10-31T05:20:48;101338.69;;;11.02;100.00
2178;BME280;1095;50.992;6.798;2022-10-31T05:23:15;101341.97;;;11.04;100.00
2178;BME280;1095;50.992;6.798;2022-10-31T05:25:42;101341.00;;;11.05;100.00
2178;BME280;1095;50.992;6.798;2022-10-31T05:28:08;101339.09;;;11.07;100.00
2178;BME280;1095;50.992;6.798;2022-10-31T05:30:35;101336.31;;;11.09;100.00
2178;BME280;1095;50.992;6.798;2022-10-31T05:33:03;101334.38;;;11.11;100.00
2178;BME280;1095;50.992;6.798;2022-10-31T05:35:31;101327.22;;;11.03;100.00
2178;BME280;1095;50.992;6.798;2022-10-31T05:37:58;101327.78;;;11.07;100.00
2178;BME280;1095;50.992;6.798;2022-10-31T05:40:25;101325.88;;;10.99;100.00
2178;BME280;1095;50.992;6.798;2022-10-31T05:42:53;101327.25;;;10.93;100.00
2178;BME280;1095;50.992;6.798;2022-10-31T05:45:21;101325.75;;;10.91;100.00
2178;BME280;1095;50.992;6.798;2022-10-31T05:47:51;101327.53;;;10.90;100.00
2178;BME280;1095;50.992;6.798;2022-10-31T05:50:20;101334.03;;;10.86;100.00
2178;BME280;1095;50.992;6.798;2022-10-31T05:52:47;101329.09;;;10.83;100.00
2178;BME280;1095;50.992;6.798;2022-10-31T05:55:14;101331.13;;;10.89;100.00
2178;BME280;1095;50.992;6.798;2022-10-31T05:57:40;101336.22;;;10.91;100.00
2178;BME280;1095;50.992;6.798;2022-10-31T06:00:09;101328.41;;;10.81;100.00
2178;BME280;1095;50.992;6.798;2022-10-31T06:02:35;101326.88;;;10.79;100.00
2178;BME280;1095;50.992;6.798;2022-10-31T06:05:02;101322.06;;;10.74;100.00
2178;BME280;1095;50.992;6.798;2022-10-31T06:07:34;101328.97;;;10.75;100.00
2178;BME280;1095;50.992;6.798;2022-10-31T06:10:01;101324.56;;;10.76;100.00
2178;BME280;1095;50.992;6.798;2022-10-31T06:12:29;101331.56;;;10.75;100.00
2178;BME280;1095;50.992;6.798;2022-10-31T06:14:55;101334.88;;;10.77;100.00
2178;BME280;1095;50.992;6.798;2022-10-31T06:17:22;101326.19;;;10.86;100.00
2178;BME280;1095;50.992;6.798;2022-10-31T06:19:48;101333.06;;;10.87;100.00
2178;BME280;1095;50.992;6.798;2022-10-31T06:22:15;101326.44;;;10.93;100.00
2178;BME280;1095;50.992;6.798;2022-10-31T06:24:43;101336.34;;;10.89;100.00
2178;BME280;1095;50.992;6.798;2022-10-31T06:27:12;101339.66;;;10.91;100.00
2178;BME280;1095;50.992;6.798;2022-10-31T06:29:39;101330.28;;;10.89;100.00
2178;BME280;1095;50.992;6.798;2022-10-31T06:32:05;101326.19;;;10.86;100.00
2178;BME280;1095;50.992;6.798;2022-10-31T06:34:32;101322.88;;;10.84;100.00
2178;BME280;1095;50.992;6.798;2022-10-31T06:36:58;101323.16;;;10.81;100.00
2178;BME280;1095;50.992;6.798;2022-10-31T06:39:25;101339.94;;;10.88;100.00
2178;BME280;1095;50.992;6.798;2022-10-31T06:41:53;101335.94;;;10.94;100.00
2178;BME280;1095;50.992;6.798;2022-10-31T06:44:19;101334.03;;;10.86;100.00
2178;BME280;1095;50.992;6.798;2022-10-31T06:46:46;101323.16;;;10.81;100.00
2178;BME280;1095;50.992;6.798;2022-10-31T06:49:16;101329.47;;;10.88;100.00
2178;BME280;1095;50.992;6.798;2022-10-31T06:51:42;101331.94;;;10.90;100.00
2178;BME280;1095;50.992;6.798;2022-10-31T06:54:09;101311.00;;;10.90;100.00
2178;BME280;1095;50.992;6.798;2022-10-31T06:56:38;101320.22;;;10.94;100.00
2178;BME280;1095;50.992;6.798;2022-10-31T06:59:07;101330.81;;;11.02;100.00
2178;BME280;1095;50.992;6.798;2022-10-31T07:01:34;101332.34;;;11.05;100.00
2178;BME280;1095;50.992;6.798;2022-10-31T07:04:00;101328.88;;;11.04;100.00
2178;BME280;1095;50.992;6.798;2022-10-31T07:06:27;101338.94;;;11.09;100.00
2178;BME280;1095;50.992;6.798;2022-10-31T07:08:53;101337.13;;;11.19;100.00
2178;BME280;1095;50.992;6.798;2022-10-31T07:11:20;101335.72;;;11.24;100.00
2178;BME280;1095;50.992;6.798;2022-10-31T07:13:47;101345.88;;;11.37;100.00
2178;BME280;1095;50.992;6.798;2022-10-31T07:16:15;101334.34;;;11.30;100.00
2178;BME280;1095;50.992;6.798;2022-10-31T07:18:41;101341.72;;;11.44;100.00
2178;BME280;1095;50.992;6.798;2022-10-31T07:21:08;101346.56;;;11.39;100.00
2178;BME280;1095;50.992;6.798;2022-10-31T07:23:34;101350.25;;;11.46;100.00
2178;BME280;1095;50.992;6.798;2022-10-31T07:26:01;101350.25;;;11.46;100.00
2178;BME280;1095;50.992;6.798;2022-10-31T07:28:28;101355.47;;;11.56;100.00
2178;BME280;1095;50.992;6.798;2022-10-31T07:30:55;101358.31;;;11.62;100.00
2178;BME280;1095;50.992;6.798;2022-10-31T07:33:24;101345.78;;;11.56;100.00
2178;BME280;1095;50.992;6.798;2022-10-31T07:35:52;101356.53;;;11.63;100.00
2178;BME280;1095;50.992;6.798;2022-10-31T07:38:19;101347.44;;;11.57;100.00
2178;BME280;1095;50.992;6.798;2022-10-31T07:40:50;101346.22;;;11.52;100.00
2178;BME280;1095;50.992;6.798;2022-10-31T07:43:17;101352.72;;;11.48;100.00
2178;BME280;1095;50.992;6.798;2022-10-31T07:45:43;101345.22;;;11.62;100.00
2178;BME280;1095;50.992;6.798;2022-10-31T07:48:10;101349.50;;;11.63;100.00
2178;BME280;1095;50.992;6.798;2022-10-31T07:50:38;101353.03;;;11.72;100.00
2178;BME280;1095;50.992;6.798;2022-10-31T07:53:06;101348.78;;;11.71;100.00
2178;BME280;1095;50.992;6.798;2022-10-31T07:55:33;101353.19;;;11.71;100.00
2178;BME280;1095;50.992;6.798;2022-10-31T07:58:02;101353.09;;;11.90;100.00
2178;BME280;1095;50.992;6.798;2022-10-31T08:00:30;101353.06;;;12.17;100.00
2178;BME280;1095;50.992;6.798;2022-10-31T08:02:58;101357.28;;;12.28;100.00
2178;BME280;1095;50.992;6.798;2022-10-31T08:05:25;101355.16;;;12.32;100.00
2178;BME280;1095;50.992;6.798;2022-10-31T08:07:53;101350.38;;;12.45;100.00
2178;BME280;1095;50.992;6.798;2022-10-31T08:10:20;101337.91;;;12.47;100.00
2178;BME280;1095;50.992;6.798;2022-10-31T08:12:47;101341.00;;;12.60;100.00
2178;BME280;1095;50.992;6.798;2022-10-31T08:15:14;101341.97;;;12.59;100.00
2178;BME280;1095;50.992;6.798;2022-10-31T08:17:40;101337.25;;;12.45;100.00
2178;BME280;1095;50.992;6.798;2022-10-31T08:20:08;101344.22;;;12.36;100.00
2178;BME280;1095;50.992;6.798;2022-10-31T08:22:34;101337.91;;;12.29;100.00
2178;BME280;1095;50.992;6.798;2022-10-31T08:25:03;101343.94;;;12.21;100.00
2178;BME280;1095;50.992;6.798;2022-10-31T08:27:29;101344.53;;;12.15;100.00
2178;BME280;1095;50.992;6.798;2022-10-31T08:29:56;101338.59;;;12.13;100.00
2178;BME280;1095;50.992;6.798;2022-10-31T08:32:23;101337.56;;;12.24;100.00
2178;BME280;1095;50.992;6.798;2022-10-31T08:34:50;101336.28;;;12.28;100.00
2178;BME280;1095;50.992;6.798;2022-10-31T08:37:16;101342.66;;;12.61;100.00
2178;BME280;1095;50.992;6.798;2022-10-31T08:39:45;101337.50;;;12.77;100.00
2178;BME280;1095;50.992;6.798;2022-10-31T08:42:13;101338.75;;;12.91;100.00
2178;BME280;1095;50.992;6.798;2022-10-31T08:44:40;101334.53;;;12.72;100.00
2178;BME280;1095;50.992;6.798;2022-10-31T08:47:06;101320.44;;;12.73;100.00
2178;BME280;1095;50.992;6.798;2022-10-31T08:49:33;101325.03;;;12.79;100.00
2178;BME280;1095;50.992;6.798;2022-10-31T08:51:59;101330.63;;;13.02;100.00
2178;BME280;1095;50.992;6.798;2022-10-31T08:54:26;101320.00;;;13.12;100.00
2178;BME280;1095;50.992;6.798;2022-10-31T08:56:54;101325.03;;;13.23;100.00
2178;BME280;1095;50.992;6.798;2022-10-31T08:59:22;101314.19;;;13.26;100.00
2178;BME280;1095;50.992;6.798;2022-10-31T09:01:49;101314.25;;;13.08;100.00
2178;BME280;1095;50.992;6.798;2022-10-31T09:04:15;101309.66;;;13.10;100.00
2178;BME280;1095;50.992;6.798;2022-10-31T09:06:46;101314.03;;;13.27;100.00
2178;BME280;1095;50.992;6.798;2022-10-31T09:09:13;101312.75;;;13.06;100.00
2178;BME280;1095;50.992;6.798;2022-10-31T09:11:39;101307.75;;;12.94;100.00
2178;BME280;1095;50.992;6.798;2022-10-31T09:14:06;101309.81;;;13.09;100.00
2178;BME280;1095;50.992;6.798;2022-10-31T09:16:34;101303.94;;;13.15;100.00
2178;BME280;1095;50.992;6.798;2022-10-31T09:19:01;101300.28;;;13.08;100.00
2178;BME280;1095;50.992;6.798;2022-10-31T09:21:27;101286.25;;;13.25;100.00
2178;BME280;1095;50.992;6.798;2022-10-31T09:23:54;101283.63;;;13.25;99.87
2178;BME280;1095;50.992;6.798;2022-10-31T09:26:20;101284.84;;;13.39;99.43
2178;BME280;1095;50.992;6.798;2022-10-31T09:28:47;101279.78;;;13.45;99.07
2178;BME280;1095;50.992;6.798;2022-10-31T09:31:14;101273.94;;;13.68;98.07
2178;BME280;1095;50.992;6.798;2022-10-31T09:33:42;101269.81;;;13.65;97.95
2178;BME280;1095;50.992;6.798;2022-10-31T09:36:08;101274.31;;;13.89;97.86
2178;BME280;1095;50.992;6.798;2022-10-31T09:38:35;101274.81;;;13.92;97.60
2178;BME280;1095;50.992;6.798;2022-10-31T09:41:11;101269.34;;;13.86;97.01
2178;BME280;1095;50.992;6.798;2022-10-31T09:43:52;101263.75;;;13.81;97.03
2178;BME280;1095;50.992;6.798;2022-10-31T09:46:31;101253.56;;;13.78;96.85
2178;BME280;1095;50.992;6.798;2022-10-31T09:49:23;101257.19;;;13.85;96.55
2178;BME280;1095;50.992;6.798;2022-10-31T09:51:55;101248.00;;;13.97;96.25
2178;BME280;1095;50.992;6.798;2022-10-31T09:54:25;101247.00;;;14.22;95.64
2178;BME280;1095;50.992;6.798;2022-10-31T09:56:53;101248.19;;;14.52;94.75
2178;BME280;1095;50.992;6.798;2022-10-31T09:59:30;101244.41;;;14.47;93.42
2178;BME280;1095;50.992;6.798;2022-10-31T10:02:00;101244.06;;;14.58;92.58
2178;BME280;1095;50.992;6.798;2022-10-31T10:04:35;101237.13;;;14.73;92.11
2178;BME280;1095;50.992;6.798;2022-10-31T10:07:11;101226.91;;;14.70;91.42
2178;BME280;1095;50.992;6.798;2022-10-31T10:09:39;101220.31;;;14.82;90.53
2178;BME280;1095;50.992;6.798;2022-10-31T10:12:09;101220.25;;;14.99;90.95
2178;BME280;1095;50.992;6.798;2022-10-31T10:14:51;101221.41;;;14.96;90.90
2178;BME280;1095;50.992;6.798;2022-10-31T10:17:28;101217.94;;;15.04;90.46
2178;BME280;1095;50.992;6.798;2022-10-31T10:20:16;101207.91;;;14.99;90.65
2178;BME280;1095;50.992;6.798;2022-10-31T10:22:55;101206.53;;;15.11;90.16
2178;BME280;1095;50.992;6.798;2022-10-31T10:25:30;101196.53;;;15.30;89.95
2178;BME280;1095;50.992;6.798;2022-10-31T10:28:04;101197.31;;;15.38;89.41
2178;BME280;1095;50.992;6.798;2022-10-31T10:30:39;101173.28;;;15.33;88.26
2178;BME280;1095;50.992;6.798;2022-10-31T10:33:11;101178.53;;;15.41;88.22
2178;BME280;1095;50.992;6.798;2022-10-31T10:35:42;101164.00;;;15.45;88.04
2178;BME280;1095;50.992;6.798;2022-10-31T10:38:16;101171.56;;;15.48;87.94
2178;BME280;1095;50.992;6.798;2022-10-31T10:40:44;101166.91;;;15.58;87.46
2178;BME280;1095;50.992;6.798;2022-10-31T10:43:20;101186.47;;;15.87;87.44
2178;BME280;1095;50.992;6.798;2022-10-31T10:45:56;101190.41;;;16.29;86.70
2178;BME280;1095;50.992;6.798;2022-10-31T10:48:45;101191.88;;;16.08;85.53
2178;BME280;1095;50.992;6.798;2022-10-31T10:51:23;101177.38;;;16.27;85.66
2178;BME280;1095;50.992;6.798;2022-10-31T10:54:06;101171.47;;;16.54;85.17
2178;BME280;1095;50.992;6.798;2022-10-31T10:56:49;101163.38;;;16.41;85.10
2178;BME280;1095;50.992;6.798;2022-10-31T10:59:19;101146.16;;;16.60;84.46
2178;BME280;1095;50.992;6.798;2022-10-31T11:01:49;101141.44;;;16.70;84.04
2178;BME280;1095;50.992;6.798;2022-10-31T11:04:29;101153.28;;;16.74;84.30
2178;BME280;1095;50.992;6.798;2022-10-31T11:06:59;101164.00;;;16.58;84.08
2178;BME280;1095;50.992;6.798;2022-10-31T11:09:26;101170.41;;;16.78;83.75
2178;BME280;1095;50.992;6.798;2022-10-31T11:11:54;101173.31;;;16.83;83.33
2178;BME280;1095;50.992;6.798;2022-10-31T11:14:22;101167.28;;;17.04;82.53
2178;BME280;1095;50.992;6.798;2022-10-31T11:16:51;101164.31;;;16.92;82.79
2178;BME280;1095;50.992;6.798;2022-10-31T11:19:21;101147.25;;;16.95;83.39
2178;BME280;1095;50.992;6.798;2022-10-31T11:21:49;101157.88;;;17.02;82.47
2178;BME280;1095;50.992;6.798;2022-10-31T11:24:18;101143.41;;;16.98;82.76
2178;BME280;1095;50.992;6.798;2022-10-31T11:26:46;101142.28;;;17.07;82.40
2178;BME280;1095;50.992;6.798;2022-10-31T11:29:16;101143.41;;;16.98;82.12
2178;BME280;1095;50.992;6.798;2022-10-31T11:31:45;101139.59;;;17.21;81.69
2178;BME280;1095;50.992;6.798;2022-10-31T11:34:19;101122.03;;;17.14;80.95
2178;BME280;1095;50.992;6.798;2022-10-31T11:36:48;101124.81;;;17.27;81.10
2178;BME280;1095;50.992;6.798;2022-10-31T11:39:18;101110.53;;;17.21;81.40
2178;BME280;1095;50.992;6.798;2022-10-31T11:41:47;101107.06;;;17.42;81.79
2178;BME280;1095;50.992;6.798;2022-10-31T11:44:17;101107.81;;;17.36;80.71
2178;BME280;1095;50.992;6.798;2022-10-31T11:46:47;101093.34;;;17.32;80.50
2178;BME280;1095;50.992;6.798;2022-10-31T11:49:16;101089.00;;;17.46;80.02
2178;BME280;1095;50.992;6.798;2022-10-31T11:51:48;101090.44;;;17.70;79.88
2178;BME280;1095;50.992;6.798;2022-10-31T11:54:22;101091.38;;;17.83;78.69
2178;BME280;1095;50.992;6.798;2022-10-31T11:56:50;101085.81;;;17.57;78.81
2178;BME280;1095;50.992;6.798;2022-10-31T11:59:22;101081.09;;;17.74;78.72
2178;BME280;1095;50.992;6.798;2022-10-31T12:01:51;101075.88;;;17.59;79.24
2178;BME280;1095;50.992;6.798;2022-10-31T12:04:18;101077.84;;;17.72;78.45
2178;BME280;1095;50.992;6.798;2022-10-31T12:06:46;101072.66;;;17.64;78.21
2178;BME280;1095;50.992;6.798;2022-10-31T12:09:20;101065.00;;;17.47;78.90
2178;BME280;1095;50.992;6.798;2022-10-31T12:12:03;101043.84;;;17.54;79.34
2178;BME280;1095;50.992;6.798;2022-10-31T12:14:39;101038.41;;;17.34;79.50
2178;BME280;1095;50.992;6.798;2022-10-31T12:17:14;101038.72;;;17.46;80.12
2178;BME280;1095;50.992;6.798;2022-10-31T12:19:44;101036.34;;;17.57;80.21
2178;BME280;1095;50.992;6.798;2022-10-31T12:22:19;101041.78;;;17.49;79.24
2178;BME280;1095;50.992;6.798;2022-10-31T12:25:09;101034.63;;;17.43;79.06
2178;BME280;1095;50.992;6.798;2022-10-31T12:27:52;101033.25;;;17.47;80.23
2178;BME280;1095;50.992;6.798;2022-10-31T12:30:27;101047.19;;;17.63;79.79
2178;BME280;1095;50.992;6.798;2022-10-31T12:33:11;101018.78;;;17.50;80.31
2178;BME280;1095;50.992;6.798;2022-10-31T12:35:46;101020.84;;;17.48;80.46
2178;BME280;1095;50.992;6.798;2022-10-31T12:38:34;101009.03;;;17.50;80.88
2178;BME280;1095;50.992;6.798;2022-10-31T12:41:17;100991.38;;;17.57;80.57
2178;BME280;1095;50.992;6.798;2022-10-31T12:43:53;100973.25;;;17.54;80.65
2178;BME280;1095;50.992;6.798;2022-10-31T12:46:29;100966.94;;;17.55;80.31
2178;BME280;1095;50.992;6.798;2022-10-31T12:49:17;100969.81;;;17.61;80.45
2178;BME280;1095;50.992;6.798;2022-10-31T12:52:00;100964.81;;;17.66;79.94
2178;BME280;1095;50.992;6.798;2022-10-31T12:54:39;100966.44;;;17.67;79.34
2178;BME280;1095;50.992;6.798;2022-10-31T12:57:26;100953.09;;;17.53;78.84
2178;BME280;1095;50.992;6.798;2022-10-31T13:00:00;100934.94;;;17.50;79.04
2178;BME280;1095;50.992;6.798;2022-10-31T13:02:30;100937.00;;;17.55;79.28
2178;BME280;1095;50.992;6.798;2022-10-31T13:05:01;100925.00;;;17.52;79.63
2178;BME280;1095;50.992;6.798;2022-10-31T13:07:31;100915.03;;;17.54;79.33
2178;BME280;1095;50.992;6.798;2022-10-31T13:10:05;100915.25;;;17.59;79.07
2178;BME280;1095;50.992;6.798;2022-10-31T13:12:39;100907.56;;;17.65;78.43
2178;BME280;1095;50.992;6.798;2022-10-31T13:15:14;100904.41;;;17.76;77.90
2178;BME280;1095;50.992;6.798;2022-10-31T13:17:45;100903.59;;;17.75;77.18
2178;BME280;1095;50.992;6.798;2022-10-31T13:20:21;100901.94;;;17.74;77.72